createdAt,value
2024-01-05T00:09:51.958Z,6516.00
2024-01-05T00:25:18.072Z,-324.00
2024-01-05T00:40:43.025Z,-324.00
2024-01-05T00:56:08.051Z,-324.00
2024-01-05T01:11:32.993Z,-324.00
2024-01-05T01:26:57.944Z,-324.00
2024-01-05T01:42:23.028Z,-324.00
2024-01-05T01:57:47.927Z,-324.00
2024-01-05T02:13:12.894Z,-324.00
2024-01-05T02:28:37.919Z,-324.00
2024-01-05T02:44:02.913Z,-324.00
2024-01-05T02:59:27.917Z,-360.00
2024-01-05T03:14:52.907Z,-324.00
2024-01-05T03:30:17.969Z,-324.00
2024-01-05T03:45:42.926Z,-324.00
2024-01-05T04:01:07.920Z,-324.00
2024-01-05T04:16:32.857Z,-324.00
2024-01-05T04:31:57.827Z,-324.00
2024-01-05T04:47:22.868Z,-324.00
2024-01-05T05:02:47.886Z,-360.00
2024-01-05T05:18:12.975Z,-324.00
2024-01-05T05:33:37.948Z,-324.00
2024-01-05T05:49:02.992Z,-324.00
2024-01-05T06:04:27.910Z,-324.00
2024-01-05T06:19:52.827Z,-324.00
2024-01-05T06:35:17.804Z,-324.00
2024-01-05T06:50:42.900Z,-360.00
2024-01-05T07:06:07.789Z,-324.00
2024-01-05T07:21:32.836Z,-288.00
2024-01-05T07:36:57.789Z,-288.00
2024-01-05T07:52:22.724Z,-288.00
2024-01-05T08:07:47.780Z,-288.00
2024-01-05T08:23:12.748Z,-216.00
2024-01-05T08:38:37.672Z,-216.00
2024-01-05T08:54:02.694Z,-216.00
2024-01-05T09:09:27.753Z,-252.00
2024-01-05T09:24:52.685Z,-252.00
2024-01-05T09:40:17.659Z,-288.00
2024-01-05T09:55:42.637Z,-216.00
2024-01-05T10:11:07.595Z,-252.00
2024-01-05T10:26:32.618Z,12888.00
2024-01-05T10:41:57.648Z,13644.00
2024-01-05T10:57:22.761Z,14400.00
2024-01-05T11:12:47.660Z,15624.00
2024-01-05T11:28:12.606Z,16092.00
2024-01-05T11:43:37.580Z,12816.00
2024-01-05T11:59:02.581Z,10368.00
2024-01-05T12:14:27.534Z,10980.00
2024-01-05T12:29:53.601Z,11700.00
2024-01-05T12:45:18.551Z,15408.00
2024-01-05T13:00:44.800Z,9324.00
2024-01-05T13:16:09.584Z,8388.00
2024-01-05T13:31:34.717Z,7884.00
2024-01-05T13:46:59.590Z,7200.00
2024-01-05T14:02:24.519Z,6408.00
2024-01-05T14:17:49.537Z,5076.00
2024-01-05T14:33:14.533Z,4752.00
2024-01-05T14:48:39.702Z,3744.00
2024-01-05T15:04:04.646Z,3312.00
2024-01-05T15:19:29.608Z,2268.00
2024-01-05T15:34:54.525Z,1116.00
2024-01-05T15:50:19.493Z,720.00
2024-01-05T16:05:44.499Z,6696.00
2024-01-05T16:21:09.445Z,6516.00
2024-01-05T16:36:34.431Z,6624.00
2024-01-05T16:51:59.465Z,6588.00
2024-01-05T17:07:24.358Z,-360.00
2024-01-05T17:22:49.406Z,-324.00
2024-01-05T17:38:14.410Z,-324.00
2024-01-05T17:53:39.450Z,-324.00
2024-01-05T18:09:04.438Z,-324.00
2024-01-05T18:24:29.592Z,-324.00
2024-01-05T18:39:54.454Z,-324.00
2024-01-05T18:55:19.344Z,-324.00
2024-01-05T19:10:45.345Z,-360.00
2024-01-05T19:26:10.350Z,-360.00
2024-01-05T19:41:35.327Z,-324.00
2024-01-05T19:57:00.340Z,-324.00
2024-01-05T20:12:25.351Z,-324.00
2024-01-05T20:27:50.413Z,-360.00
2024-01-05T20:43:15.309Z,-324.00
2024-01-05T20:58:42.424Z,-324.00
2024-01-05T21:14:05.304Z,-360.00
2024-01-05T21:29:31.252Z,-360.00
2024-01-05T21:44:56.276Z,1260.00
2024-01-05T22:00:21.281Z,1224.00
2024-01-05T22:15:46.191Z,972.00
2024-01-05T22:31:11.376Z,972.00
2024-01-05T22:46:36.174Z,900.00
2024-01-05T23:02:01.280Z,900.00
2024-01-05T23:17:26.234Z,900.00
2024-01-05T23:32:51.209Z,900.00
2024-01-05T23:48:16.313Z,5760.00
